Alexander, West Virginia
Current Conditions -  °F | °C
As of 12:55 PM on Monday 24 Nov 2014 (Local Time) from KW22 Reporting Station
Broken Clouds Broken Clouds  
Wind Chill: 68°   Ceiling: 8000
Heat Index: 68°   Visibility: 10mi
Dew Point: 41°   Wind: 31mph
Humidity: 37%   Direction: 220°SW
Pressure: 29.52"   Gusts: 48mph
Location:  38.8347°N, 80.2578°W
Report Text: KW22 241755Z AUTO 22027G42KT 10SM SCT065 BKN080 20/05 A2952 RMK AO2
Loading
Personal Weather Stations






























Interactive Weather Map New forecast layout! Learn more

10-Day Weather Forecast

Advertisements
Track Severe Weather on mobile